TimePST,TemperatureF,Dew PointF,Humidity,Sea Level PressureIn,VisibilityMPH,Wind Direction,Wind SpeedMPH,Gust SpeedMPH,PrecipitationIn,Events,Conditions,WindDirDegrees,DateUTC
12:35 AM,53.6,48.2,82,30.22,10.0,West,3.5,-,N/A,,Mostly Cloudy,280,2011-11-17 08:35:00
12:56 AM,53.1,48.0,83,30.22,10.0,West,9.2,-,N/A,,Mostly Cloudy,260,2011-11-17 08:56:00
1:56 AM,53.1,48.0,83,30.21,10.0,West,9.2,-,N/A,,Mostly Cloudy,260,2011-11-17 09:56:00
2:56 AM,53.1,48.0,83,30.21,10.0,West,9.2,-,N/A,,Mostly Cloudy,260,2011-11-17 10:56:00
3:56 AM,53.1,48.0,83,30.20,10.0,West,10.4,-,N/A,,Mostly Cloudy,280,2011-11-17 11:56:00
4:56 AM,53.1,48.0,83,30.19,10.0,West,10.4,-,N/A,,Mostly Cloudy,280,2011-11-17 12:56:00
5:56 AM,52.0,48.0,86,30.19,10.0,West,9.2,-,N/A,,Scattered Clouds,280,2011-11-17 13:56:00
6:56 AM,52.0,48.0,86,30.19,10.0,West,11.5,-,N/A,,Partly Cloudy,270,2011-11-17 14:56:00
7:56 AM,54.0,48.0,80,30.21,10.0,West,4.6,-,N/A,,Partly Cloudy,280,2011-11-17 15:56:00
8:56 AM,55.9,48.9,77,30.21,10.0,West,11.5,-,N/A,,Mostly Cloudy,280,2011-11-17 16:56:00
9:56 AM,57.0,48.9,74,30.21,10.0,West,11.5,-,N/A,,Mostly Cloudy,270,2011-11-17 17:56:00
10:56 AM,57.9,48.9,72,30.19,10.0,West,15.0,-,N/A,,Mostly Cloudy,280,2011-11-17 18:56:00
11:56 AM,59.0,48.0,67,30.17,10.0,West,12.7,-,N/A,,Mostly Cloudy,280,2011-11-17 19:56:00
12:56 PM,59.0,48.0,67,30.14,10.0,West,13.8,-,N/A,,Mostly Cloudy,270,2011-11-17 20:56:00
1:56 PM,57.9,48.0,70,30.12,10.0,West,13.8,-,N/A,,Mostly Cloudy,270,2011-11-17 21:56:00
2:56 PM,57.9,48.9,72,30.11,10.0,West,17.3,-,N/A,,Mostly Cloudy,280,2011-11-17 22:56:00
3:49 PM,57.2,48.2,72,30.10,10.0,West,11.5,-,N/A,,Mostly Cloudy,270,2011-11-17 23:49:00
3:56 PM,57.9,48.9,72,30.10,10.0,West,12.7,-,N/A,,Mostly Cloudy,260,2011-11-17 23:56:00
4:56 PM,57.0,50.0,77,30.09,10.0,WSW,5.8,-,N/A,,Overcast,240,2011-11-18 00:56:00
5:56 PM,55.9,50.0,80,30.09,10.0,SW,9.2,-,N/A,,Overcast,230,2011-11-18 01:56:00
6:56 PM,55.9,51.1,84,30.08,10.0,WSW,6.9,-,N/A,,Mostly Cloudy,250,2011-11-18 02:56:00
7:56 PM,55.9,52.0,87,30.08,9.0,WSW,6.9,-,0.00,,Light Drizzle,250,2011-11-18 03:56:00
8:27 PM,55.4,51.8,88,30.08,10.0,SW,4.6,-,0.00,,Overcast,220,2011-11-18 04:27:00
8:56 PM,55.9,50.0,80,30.09,10.0,West,10.4,-,0.00,,Overcast,270,2011-11-18 04:56:00
9:56 PM,55.9,48.0,75,30.10,10.0,West,8.1,-,N/A,,Overcast,270,2011-11-18 05:56:00
10:34 PM,53.6,48.2,82,30.09,10.0,West,6.9,-,N/A,,Mostly Cloudy,280,2011-11-18 06:34:00
10:56 PM,53.6,48.2,82,30.09,10.0,WNW,5.8,-,N/A,,Mostly Cloudy,290,2011-11-18 06:56:00
11:56 PM,53.1,48.0,83,30.09,10.0,West,8.1,-,N/A,,Mostly Cloudy,280,2011-11-18 07:56:00